sensor_id;sensor_type;location;lat;lon;timestamp;temperature;humidity
45849;DHT22;31567;54.600;9.842;2023-07-28T00:00:57;18.10;99.90
45849;DHT22;31567;54.600;9.842;2023-07-28T00:04:37;18.10;99.90
45849;DHT22;31567;54.600;9.842;2023-07-28T00:08:17;18.10;99.90
45849;DHT22;31567;54.600;9.842;2023-07-28T00:11:57;18.00;99.90
45849;DHT22;31567;54.600;9.842;2023-07-28T00:15:37;18.00;99.90
45849;DHT22;31567;54.600;9.842;2023-07-28T00:19:16;17.90;99.90
45849;DHT22;31567;54.600;9.842;2023-07-28T00:22:56;17.80;99.90
45849;DHT22;31567;54.600;9.842;2023-07-28T00:26:36;17.80;99.90
45849;DHT22;31567;54.600;9.842;2023-07-28T00:30:15;17.80;99.90
45849;DHT22;31567;54.600;9.842;2023-07-28T00:33:55;17.80;99.90
45849;DHT22;31567;54.600;9.842;2023-07-28T00:37:34;17.70;99.90
45849;DHT22;31567;54.600;9.842;2023-07-28T00:41:14;17.70;99.90
45849;DHT22;31567;54.600;9.842;2023-07-28T00:44:54;17.70;99.90
45849;DHT22;31567;54.600;9.842;2023-07-28T00:48:33;17.60;99.90
45849;DHT22;31567;54.600;9.842;2023-07-28T00:52:13;17.50;99.90
45849;DHT22;31567;54.600;9.842;2023-07-28T00:55:53;17.50;99.90
45849;DHT22;31567;54.600;9.842;2023-07-28T00:59:33;17.50;99.90
45849;DHT22;31567;54.600;9.842;2023-07-28T01:03:13;17.50;99.90
45849;DHT22;31567;54.600;9.842;2023-07-28T01:07:16;17.40;99.90
45849;DHT22;31567;54.600;9.842;2023-07-28T01:10:56;17.50;99.90
45849;DHT22;31567;54.600;9.842;2023-07-28T01:14:36;17.60;99.90
45849;DHT22;31567;54.600;9.842;2023-07-28T01:18:15;17.60;99.90
45849;DHT22;31567;54.600;9.842;2023-07-28T01:26:10;17.60;99.90
45849;DHT22;31567;54.600;9.842;2023-07-28T01:29:50;17.60;99.90
45849;DHT22;31567;54.600;9.842;2023-07-28T01:33:30;17.60;99.90
45849;DHT22;31567;54.600;9.842;2023-07-28T01:37:10;17.50;99.90
45849;DHT22;31567;54.600;9.842;2023-07-28T01:40:49;17.50;99.90
45849;DHT22;31567;54.600;9.842;2023-07-28T01:44:29;17.50;99.90
45849;DHT22;31567;54.600;9.842;2023-07-28T01:48:08;17.50;99.90
45849;DHT22;31567;54.600;9.842;2023-07-28T01:51:48;17.60;99.90
45849;DHT22;31567;54.600;9.842;2023-07-28T01:55:28;17.50;99.90
45849;DHT22;31567;54.600;9.842;2023-07-28T01:59:08;17.50;99.90
45849;DHT22;31567;54.600;9.842;2023-07-28T02:02:48;17.60;99.90
45849;DHT22;31567;54.600;9.842;2023-07-28T02:06:28;17.60;99.90
45849;DHT22;31567;54.600;9.842;2023-07-28T02:10:08;17.60;99.90
45849;DHT22;31567;54.600;9.842;2023-07-28T02:13:49;17.60;99.90
45849;DHT22;31567;54.600;9.842;2023-07-28T02:17:29;17.60;99.90
45849;DHT22;31567;54.600;9.842;2023-07-28T02:21:09;17.60;99.90
45849;DHT22;31567;54.600;9.842;2023-07-28T02:24:48;17.60;99.90
45849;DHT22;31567;54.600;9.842;2023-07-28T02:28:28;17.60;99.90
45849;DHT22;31567;54.600;9.842;2023-07-28T02:32:08;17.60;99.90
45849;DHT22;31567;54.600;9.842;2023-07-28T02:35:47;17.60;99.90
45849;DHT22;31567;54.600;9.842;2023-07-28T02:39:27;17.60;99.90
45849;DHT22;31567;54.600;9.842;2023-07-28T02:43:06;17.60;99.90
45849;DHT22;31567;54.600;9.842;2023-07-28T02:46:46;17.60;99.90
45849;DHT22;31567;54.600;9.842;2023-07-28T02:50:25;17.60;99.90
45849;DHT22;31567;54.600;9.842;2023-07-28T02:54:05;17.50;99.90
45849;DHT22;31567;54.600;9.842;2023-07-28T02:57:45;17.50;99.90
45849;DHT22;31567;54.600;9.842;2023-07-28T03:01:25;17.50;99.90
45849;DHT22;31567;54.600;9.842;2023-07-28T03:05:04;17.50;99.90
45849;DHT22;31567;54.600;9.842;2023-07-28T03:08:44;17.50;99.90
45849;DHT22;31567;54.600;9.842;2023-07-28T03:12:24;17.40;99.90
45849;DHT22;31567;54.600;9.842;2023-07-28T03:16:03;17.40;99.90
45849;DHT22;31567;54.600;9.842;2023-07-28T03:19:43;17.40;99.90
45849;DHT22;31567;54.600;9.842;2023-07-28T03:23:23;17.40;99.90
45849;DHT22;31567;54.600;9.842;2023-07-28T03:27:02;17.30;99.90
45849;DHT22;31567;54.600;9.842;2023-07-28T03:30:42;17.30;99.90
45849;DHT22;31567;54.600;9.842;2023-07-28T03:34:21;17.20;99.90
45849;DHT22;31567;54.600;9.842;2023-07-28T03:38:01;17.30;99.90
45849;DHT22;31567;54.600;9.842;2023-07-28T03:41:40;17.30;99.90
45849;DHT22;31567;54.600;9.842;2023-07-28T03:45:20;17.20;99.90
45849;DHT22;31567;54.600;9.842;2023-07-28T03:49:00;17.20;99.90
45849;DHT22;31567;54.600;9.842;2023-07-28T03:52:39;17.20;99.90
45849;DHT22;31567;54.600;9.842;2023-07-28T03:56:19;17.20;99.90
45849;DHT22;31567;54.600;9.842;2023-07-28T03:59:58;17.20;99.90
45849;DHT22;31567;54.600;9.842;2023-07-28T04:03:38;17.10;99.90
45849;DHT22;31567;54.600;9.842;2023-07-28T04:07:18;17.20;99.90
45849;DHT22;31567;54.600;9.842;2023-07-28T04:10:57;17.20;99.90
45849;DHT22;31567;54.600;9.842;2023-07-28T04:14:37;17.20;99.90
45849;DHT22;31567;54.600;9.842;2023-07-28T04:18:16;17.30;99.90
45849;DHT22;31567;54.600;9.842;2023-07-28T04:21:57;17.40;99.90
45849;DHT22;31567;54.600;9.842;2023-07-28T04:25:36;17.40;99.90
45849;DHT22;31567;54.600;9.842;2023-07-28T04:29:16;17.40;99.90
45849;DHT22;31567;54.600;9.842;2023-07-28T04:32:56;17.50;99.90
45849;DHT22;31567;54.600;9.842;2023-07-28T04:36:35;17.50;99.90
45849;DHT22;31567;54.600;9.842;2023-07-28T04:40:15;17.60;99.90
45849;DHT22;31567;54.600;9.842;2023-07-28T04:43:54;17.60;99.90
45849;DHT22;31567;54.600;9.842;2023-07-28T04:47:34;17.50;99.90
45849;DHT22;31567;54.600;9.842;2023-07-28T04:51:14;17.60;99.90
45849;DHT22;31567;54.600;9.842;2023-07-28T04:54:53;17.60;99.90
45849;DHT22;31567;54.600;9.842;2023-07-28T04:58:33;17.60;99.90
45849;DHT22;31567;54.600;9.842;2023-07-28T05:02:13;17.60;99.90
45849;DHT22;31567;54.600;9.842;2023-07-28T05:05:52;17.60;99.90
45849;DHT22;31567;54.600;9.842;2023-07-28T05:09:32;17.60;99.90
45849;DHT22;31567;54.600;9.842;2023-07-28T05:13:11;17.50;99.90
45849;DHT22;31567;54.600;9.842;2023-07-28T05:16:51;17.60;99.90
45849;DHT22;31567;54.600;9.842;2023-07-28T05:20:30;17.60;99.90
45849;DHT22;31567;54.600;9.842;2023-07-28T05:24:10;17.60;99.90
45849;DHT22;31567;54.600;9.842;2023-07-28T05:27:49;17.70;99.90
45849;DHT22;31567;54.600;9.842;2023-07-28T05:31:29;17.80;99.90
45849;DHT22;31567;54.600;9.842;2023-07-28T05:35:09;17.90;99.90
45849;DHT22;31567;54.600;9.842;2023-07-28T05:38:48;18.00;99.90
45849;DHT22;31567;54.600;9.842;2023-07-28T05:42:29;18.20;99.90
45849;DHT22;31567;54.600;9.842;2023-07-28T05:46:08;18.30;99.90
45849;DHT22;31567;54.600;9.842;2023-07-28T05:49:48;18.60;99.90
45849;DHT22;31567;54.600;9.842;2023-07-28T05:53:27;18.70;99.90
45849;DHT22;31567;54.600;9.842;2023-07-28T05:57:07;18.90;99.90
45849;DHT22;31567;54.600;9.842;2023-07-28T06:00:46;19.10;99.90
45849;DHT22;31567;54.600;9.842;2023-07-28T06:04:27;19.20;99.90
45849;DHT22;31567;54.600;9.842;2023-07-28T06:08:07;19.40;99.90
45849;DHT22;31567;54.600;9.842;2023-07-28T06:11:46;19.50;99.90
45849;DHT22;31567;54.600;9.842;2023-07-28T06:15:26;19.60;99.90
45849;DHT22;31567;54.600;9.842;2023-07-28T06:19:05;19.80;99.90
45849;DHT22;31567;54.600;9.842;2023-07-28T06:22:45;19.80;99.90
45849;DHT22;31567;54.600;9.842;2023-07-28T06:26:25;19.90;99.90
45849;DHT22;31567;54.600;9.842;2023-07-28T06:30:05;20.00;99.90
45849;DHT22;31567;54.600;9.842;2023-07-28T06:33:46;19.90;99.90
45849;DHT22;31567;54.600;9.842;2023-07-28T06:37:26;19.90;99.90
45849;DHT22;31567;54.600;9.842;2023-07-28T06:41:05;20.00;99.90
45849;DHT22;31567;54.600;9.842;2023-07-28T06:44:45;20.00;99.90
45849;DHT22;31567;54.600;9.842;2023-07-28T06:48:24;20.20;99.90
45849;DHT22;31567;54.600;9.842;2023-07-28T06:52:04;20.20;99.90
45849;DHT22;31567;54.600;9.842;2023-07-28T06:55:44;20.30;99.90
45849;DHT22;31567;54.600;9.842;2023-07-28T06:59:23;20.50;99.90
45849;DHT22;31567;54.600;9.842;2023-07-28T07:03:03;20.50;99.90
45849;DHT22;31567;54.600;9.842;2023-07-28T07:06:43;20.60;99.90
45849;DHT22;31567;54.600;9.842;2023-07-28T07:10:22;20.70;99.90
45849;DHT22;31567;54.600;9.842;2023-07-28T07:14:02;20.80;99.90
45849;DHT22;31567;54.600;9.842;2023-07-28T07:17:42;20.70;99.60
45849;DHT22;31567;54.600;9.842;2023-07-28T07:21:22;20.60;99.50
45849;DHT22;31567;54.600;9.842;2023-07-28T07:25:02;20.70;99.70
45849;DHT22;31567;54.600;9.842;2023-07-28T07:28:41;20.90;99.60
45849;DHT22;31567;54.600;9.842;2023-07-28T07:32:21;21.10;99.30
45849;DHT22;31567;54.600;9.842;2023-07-28T07:36:00;21.20;98.90
45849;DHT22;31567;54.600;9.842;2023-07-28T07:39:40;21.40;98.40
45849;DHT22;31567;54.600;9.842;2023-07-28T07:43:20;21.50;98.00
45849;DHT22;31567;54.600;9.842;2023-07-28T07:47:01;21.50;98.00
45849;DHT22;31567;54.600;9.842;2023-07-28T07:50:51;21.70;97.80
45849;DHT22;31567;54.600;9.842;2023-07-28T07:54:31;21.80;97.50
45849;DHT22;31567;54.600;9.842;2023-07-28T07:58:10;22.00;97.70
45849;DHT22;31567;54.600;9.842;2023-07-28T08:01:50;22.10;97.20
45849;DHT22;31567;54.600;9.842;2023-07-28T08:05:29;22.20;96.80
45849;DHT22;31567;54.600;9.842;2023-07-28T08:09:09;22.30;96.20
45849;DHT22;31567;54.600;9.842;2023-07-28T08:12:49;22.20;96.00
45849;DHT22;31567;54.600;9.842;2023-07-28T08:16:29;22.20;95.60
45849;DHT22;31567;54.600;9.842;2023-07-28T08:20:09;22.30;95.20
45849;DHT22;31567;54.600;9.842;2023-07-28T08:23:48;22.30;94.80
45849;DHT22;31567;54.600;9.842;2023-07-28T08:27:28;22.20;94.60
45849;DHT22;31567;54.600;9.842;2023-07-28T08:31:08;22.10;94.50
45849;DHT22;31567;54.600;9.842;2023-07-28T08:34:48;22.20;94.90
45849;DHT22;31567;54.600;9.842;2023-07-28T08:38:27;22.40;95.20
45849;DHT22;31567;54.600;9.842;2023-07-28T08:42:07;22.60;95.30
45849;DHT22;31567;54.600;9.842;2023-07-28T08:45:46;22.60;94.90
45849;DHT22;31567;54.600;9.842;2023-07-28T08:49:26;22.60;94.70
45849;DHT22;31567;54.600;9.842;2023-07-28T08:53:06;22.60;94.60
45849;DHT22;31567;54.600;9.842;2023-07-28T08:56:45;22.60;94.20
45849;DHT22;31567;54.600;9.842;2023-07-28T09:00:25;22.50;94.60
45849;DHT22;31567;54.600;9.842;2023-07-28T09:04:09;22.50;94.60
45849;DHT22;31567;54.600;9.842;2023-07-28T09:07:50;22.60;94.40
45849;DHT22;31567;54.600;9.842;2023-07-28T09:11:31;22.80;93.70
45849;DHT22;31567;54.600;9.842;2023-07-28T09:15:10;23.00;93.80
45849;DHT22;31567;54.600;9.842;2023-07-28T09:18:50;23.10;94.30
45849;DHT22;31567;54.600;9.842;2023-07-28T09:22:30;23.40;93.90
45849;DHT22;31567;54.600;9.842;2023-07-28T09:26:10;23.50;93.30
45849;DHT22;31567;54.600;9.842;2023-07-28T09:29:54;23.70;93.10
45849;DHT22;31567;54.600;9.842;2023-07-28T09:33:37;23.90;92.70
45849;DHT22;31567;54.600;9.842;2023-07-28T09:37:22;24.00;92.60
45849;DHT22;31567;54.600;9.842;2023-07-28T09:41:04;24.10;92.30
45849;DHT22;31567;54.600;9.842;2023-07-28T09:44:46;24.20;92.00
45849;DHT22;31567;54.600;9.842;2023-07-28T09:48:29;24.30;92.70
45849;DHT22;31567;54.600;9.842;2023-07-28T09:52:11;24.40;92.50
45849;DHT22;31567;54.600;9.842;2023-07-28T09:55:53;24.50;92.10
45849;DHT22;31567;54.600;9.842;2023-07-28T09:59:38;24.50;91.40
45849;DHT22;31567;54.600;9.842;2023-07-28T10:03:18;24.40;91.00
45849;DHT22;31567;54.600;9.842;2023-07-28T10:06:58;24.20;91.60
45849;DHT22;31567;54.600;9.842;2023-07-28T10:10:40;24.10;91.20
45849;DHT22;31567;54.600;9.842;2023-07-28T10:14:36;24.00;91.10
45849;DHT22;31567;54.600;9.842;2023-07-28T10:18:20;23.90;91.00
45849;DHT22;31567;54.600;9.842;2023-07-28T10:22:02;23.80;92.40
45849;DHT22;31567;54.600;9.842;2023-07-28T10:25:45;24.20;91.90
45849;DHT22;31567;54.600;9.842;2023-07-28T10:29:25;24.40;91.70
45849;DHT22;31567;54.600;9.842;2023-07-28T10:33:05;24.70;91.30
45849;DHT22;31567;54.600;9.842;2023-07-28T10:36:45;24.80;90.50
45849;DHT22;31567;54.600;9.842;2023-07-28T10:40:35;24.70;90.10
45849;DHT22;31567;54.600;9.842;2023-07-28T10:44:15;24.40;91.10
45849;DHT22;31567;54.600;9.842;2023-07-28T10:47:55;24.30;90.70
45849;DHT22;31567;54.600;9.842;2023-07-28T10:51:36;24.00;91.10
45849;DHT22;31567;54.600;9.842;2023-07-28T10:55:17;23.80;91.30
45849;DHT22;31567;54.600;9.842;2023-07-28T11:06:50;23.80;91.70
45849;DHT22;31567;54.600;9.842;2023-07-28T11:10:31;23.70;91.40
45849;DHT22;31567;54.600;9.842;2023-07-28T11:14:15;23.60;91.90
45849;DHT22;31567;54.600;9.842;2023-07-28T11:17:55;23.60;92.20
45849;DHT22;31567;54.600;9.842;2023-07-28T11:21:41;23.50;92.10
45849;DHT22;31567;54.600;9.842;2023-07-28T11:25:21;23.70;92.10
45849;DHT22;31567;54.600;9.842;2023-07-28T11:29:01;24.00;92.30
45849;DHT22;31567;54.600;9.842;2023-07-28T11:32:43;24.40;91.80
45849;DHT22;31567;54.600;9.842;2023-07-28T11:36:28;24.80;91.60
45849;DHT22;31567;54.600;9.842;2023-07-28T11:40:09;25.20;90.30
45849;DHT22;31567;54.600;9.842;2023-07-28T11:43:50;25.40;89.70
45849;DHT22;31567;54.600;9.842;2023-07-28T11:47:30;25.70;88.00
45849;DHT22;31567;54.600;9.842;2023-07-28T11:51:13;25.90;88.20
45849;DHT22;31567;54.600;9.842;2023-07-28T11:54:53;26.10;87.90
45849;DHT22;31567;54.600;9.842;2023-07-28T11:58:32;26.40;87.30
45849;DHT22;31567;54.600;9.842;2023-07-28T12:02:12;26.50;87.10
45849;DHT22;31567;54.600;9.842;2023-07-28T12:06:05;26.70;86.60
45849;DHT22;31567;54.600;9.842;2023-07-28T12:13:25;26.40;85.80
45849;DHT22;31567;54.600;9.842;2023-07-28T12:17:16;26.20;85.00
45849;DHT22;31567;54.600;9.842;2023-07-28T12:20:59;26.00;84.10
45849;DHT22;31567;54.600;9.842;2023-07-28T12:24:39;25.90;84.60
45849;DHT22;31567;54.600;9.842;2023-07-28T12:28:19;25.90;84.90
45849;DHT22;31567;54.600;9.842;2023-07-28T12:31:58;26.10;85.20
45849;DHT22;31567;54.600;9.842;2023-07-28T12:35:38;26.40;85.90
45849;DHT22;31567;54.600;9.842;2023-07-28T12:39:17;26.70;83.60
45849;DHT22;31567;54.600;9.842;2023-07-28T12:42:57;26.60;83.00
45849;DHT22;31567;54.600;9.842;2023-07-28T12:46:37;26.40;83.40
45849;DHT22;31567;54.600;9.842;2023-07-28T12:50:17;26.20;83.50
45849;DHT22;31567;54.600;9.842;2023-07-28T12:53:56;26.30;82.10
45849;DHT22;31567;54.600;9.842;2023-07-28T12:57:36;26.30;82.30
45849;DHT22;31567;54.600;9.842;2023-07-28T13:01:15;26.10;82.70
45849;DHT22;31567;54.600;9.842;2023-07-28T13:04:55;25.90;82.10
45849;DHT22;31567;54.600;9.842;2023-07-28T13:08:35;25.70;82.40
45849;DHT22;31567;54.600;9.842;2023-07-28T13:12:15;25.60;82.80
45849;DHT22;31567;54.600;9.842;2023-07-28T13:15:54;25.40;82.90
45849;DHT22;31567;54.600;9.842;2023-07-28T13:19:34;25.40;83.00
45849;DHT22;31567;54.600;9.842;2023-07-28T13:23:14;25.40;83.30
45849;DHT22;31567;54.600;9.842;2023-07-28T13:26:53;25.40;82.10
45849;DHT22;31567;54.600;9.842;2023-07-28T13:30:33;25.70;83.10
45849;DHT22;31567;54.600;9.842;2023-07-28T13:34:12;25.70;81.50
45849;DHT22;31567;54.600;9.842;2023-07-28T13:37:52;25.80;81.70
45849;DHT22;31567;54.600;9.842;2023-07-28T13:41:31;25.90;82.20
45849;DHT22;31567;54.600;9.842;2023-07-28T13:45:11;25.90;82.90
45849;DHT22;31567;54.600;9.842;2023-07-28T13:48:50;25.90;80.90
45849;DHT22;31567;54.600;9.842;2023-07-28T13:52:30;25.90;80.00
45849;DHT22;31567;54.600;9.842;2023-07-28T13:56:09;25.90;79.50
45849;DHT22;31567;54.600;9.842;2023-07-28T13:59:49;25.90;81.50
45849;DHT22;31567;54.600;9.842;2023-07-28T14:03:29;25.90;82.30
45849;DHT22;31567;54.600;9.842;2023-07-28T14:07:08;25.90;82.30
45849;DHT22;31567;54.600;9.842;2023-07-28T14:10:48;25.90;83.30
45849;DHT22;31567;54.600;9.842;2023-07-28T14:14:27;25.90;84.30
45849;DHT22;31567;54.600;9.842;2023-07-28T14:18:07;25.80;83.10
45849;DHT22;31567;54.600;9.842;2023-07-28T14:21:46;25.70;83.20
45849;DHT22;31567;54.600;9.842;2023-07-28T14:25:26;26.00;84.70
45849;DHT22;31567;54.600;9.842;2023-07-28T14:29:06;26.30;81.70
45849;DHT22;31567;54.600;9.842;2023-07-28T14:32:45;26.60;78.40
45849;DHT22;31567;54.600;9.842;2023-07-28T14:36:25;26.60;79.10
45849;DHT22;31567;54.600;9.842;2023-07-28T14:40:05;26.60;78.90
45849;DHT22;31567;54.600;9.842;2023-07-28T14:43:45;26.70;78.80
45849;DHT22;31567;54.600;9.842;2023-07-28T14:47:25;26.50;77.10
45849;DHT22;31567;54.600;9.842;2023-07-28T14:51:04;26.20;79.20
45849;DHT22;31567;54.600;9.842;2023-07-28T14:54:44;26.00;78.70
45849;DHT22;31567;54.600;9.842;2023-07-28T14:58:24;25.90;81.60
45849;DHT22;31567;54.600;9.842;2023-07-28T15:02:04;25.70;82.60
45849;DHT22;31567;54.600;9.842;2023-07-28T15:05:44;25.60;83.60
45849;DHT22;31567;54.600;9.842;2023-07-28T15:09:24;25.50;83.70
45849;DHT22;31567;54.600;9.842;2023-07-28T15:13:03;25.50;83.80
45849;DHT22;31567;54.600;9.842;2023-07-28T15:16:43;25.40;85.20
45849;DHT22;31567;54.600;9.842;2023-07-28T15:20:23;25.30;85.30
45849;DHT22;31567;54.600;9.842;2023-07-28T15:24:03;25.20;85.10
45849;DHT22;31567;54.600;9.842;2023-07-28T15:27:43;25.10;84.40
45849;DHT22;31567;54.600;9.842;2023-07-28T15:31:23;25.00;84.20
45849;DHT22;31567;54.600;9.842;2023-07-28T15:35:03;24.90;84.80
45849;DHT22;31567;54.600;9.842;2023-07-28T15:38:43;24.80;85.80
45849;DHT22;31567;54.600;9.842;2023-07-28T15:42:22;24.80;85.70
45849;DHT22;31567;54.600;9.842;2023-07-28T15:46:04;24.80;85.20
45849;DHT22;31567;54.600;9.842;2023-07-28T15:49:44;24.70;85.80
45849;DHT22;31567;54.600;9.842;2023-07-28T15:53:24;24.80;86.30
45849;DHT22;31567;54.600;9.842;2023-07-28T15:57:03;25.00;85.30
45849;DHT22;31567;54.600;9.842;2023-07-28T16:00:43;25.00;87.00
45849;DHT22;31567;54.600;9.842;2023-07-28T16:04:22;25.10;87.00
45849;DHT22;31567;54.600;9.842;2023-07-28T16:08:02;25.20;86.30
45849;DHT22;31567;54.600;9.842;2023-07-28T16:11:42;25.20;86.20
45849;DHT22;31567;54.600;9.842;2023-07-28T16:15:21;25.40;85.30
45849;DHT22;31567;54.600;9.842;2023-07-28T16:19:01;25.60;86.40
45849;DHT22;31567;54.600;9.842;2023-07-28T16:22:41;25.50;85.80
45849;DHT22;31567;54.600;9.842;2023-07-28T16:26:20;25.50;86.70
45849;DHT22;31567;54.600;9.842;2023-07-28T16:30:04;25.40;87.40
45849;DHT22;31567;54.600;9.842;2023-07-28T16:33:44;25.40;88.70
45849;DHT22;31567;54.600;9.842;2023-07-28T16:37:24;25.40;88.00
45849;DHT22;31567;54.600;9.842;2023-07-28T16:41:03;25.40;88.40
45849;DHT22;31567;54.600;9.842;2023-07-28T16:44:43;25.40;87.90
45849;DHT22;31567;54.600;9.842;2023-07-28T16:48:23;25.50;88.20
45849;DHT22;31567;54.600;9.842;2023-07-28T16:52:03;25.60;87.10
45849;DHT22;31567;54.600;9.842;2023-07-28T16:55:42;25.50;87.40
45849;DHT22;31567;54.600;9.842;2023-07-28T16:59:22;25.40;87.40
45849;DHT22;31567;54.600;9.842;2023-07-28T17:03:01;25.40;87.50
45849;DHT22;31567;54.600;9.842;2023-07-28T17:06:41;25.30;86.80
45849;DHT22;31567;54.600;9.842;2023-07-28T17:10:20;25.20;87.50
45849;DHT22;31567;54.600;9.842;2023-07-28T17:14:00;25.40;87.70
45849;DHT22;31567;54.600;9.842;2023-07-28T17:17:40;25.60;86.70
45849;DHT22;31567;54.600;9.842;2023-07-28T17:21:19;25.80;86.70
45849;DHT22;31567;54.600;9.842;2023-07-28T17:24:59;25.90;86.10
45849;DHT22;31567;54.600;9.842;2023-07-28T17:28:38;25.90;87.50
45849;DHT22;31567;54.600;9.842;2023-07-28T17:32:18;25.80;86.30
45849;DHT22;31567;54.600;9.842;2023-07-28T17:35:58;25.70;86.90
45849;DHT22;31567;54.600;9.842;2023-07-28T17:39:40;25.60;89.40
45849;DHT22;31567;54.600;9.842;2023-07-28T17:43:19;25.50;90.40
45849;DHT22;31567;54.600;9.842;2023-07-28T17:46:59;25.50;90.30
45849;DHT22;31567;54.600;9.842;2023-07-28T17:50:38;25.50;90.60
45849;DHT22;31567;54.600;9.842;2023-07-28T17:54:18;25.40;90.80
45849;DHT22;31567;54.600;9.842;2023-07-28T17:57:57;25.30;90.80
45849;DHT22;31567;54.600;9.842;2023-07-28T18:01:37;25.20;91.30
45849;DHT22;31567;54.600;9.842;2023-07-28T18:05:17;25.10;91.30
45849;DHT22;31567;54.600;9.842;2023-07-28T18:08:57;25.10;91.10
45849;DHT22;31567;54.600;9.842;2023-07-28T18:12:36;25.00;90.80
45849;DHT22;31567;54.600;9.842;2023-07-28T18:16:16;25.00;90.90
45849;DHT22;31567;54.600;9.842;2023-07-28T18:19:56;25.10;91.20
45849;DHT22;31567;54.600;9.842;2023-07-28T18:23:35;25.20;91.40
45849;DHT22;31567;54.600;9.842;2023-07-28T18:27:15;25.20;91.20
45849;DHT22;31567;54.600;9.842;2023-07-28T18:30:55;25.20;91.30
45849;DHT22;31567;54.600;9.842;2023-07-28T18:34:34;25.20;91.40
45849;DHT22;31567;54.600;9.842;2023-07-28T18:38:14;25.10;91.20
45849;DHT22;31567;54.600;9.842;2023-07-28T18:41:53;25.00;91.50
45849;DHT22;31567;54.600;9.842;2023-07-28T18:45:33;24.80;91.70
45849;DHT22;31567;54.600;9.842;2023-07-28T18:49:12;24.60;91.90
45849;DHT22;31567;54.600;9.842;2023-07-28T18:52:52;24.50;92.10
45849;DHT22;31567;54.600;9.842;2023-07-28T18:56:32;24.40;92.30
45849;DHT22;31567;54.600;9.842;2023-07-28T19:00:12;24.30;92.50
45849;DHT22;31567;54.600;9.842;2023-07-28T19:03:52;24.20;92.70
45849;DHT22;31567;54.600;9.842;2023-07-28T19:07:31;24.20;92.90
45849;DHT22;31567;54.600;9.842;2023-07-28T19:11:11;24.10;93.00
45849;DHT22;31567;54.600;9.842;2023-07-28T19:14:51;24.00;92.90
45849;DHT22;31567;54.600;9.842;2023-07-28T19:18:30;23.90;92.70
45849;DHT22;31567;54.600;9.842;2023-07-28T19:22:10;23.80;92.70
45849;DHT22;31567;54.600;9.842;2023-07-28T19:25:50;23.60;92.90
45849;DHT22;31567;54.600;9.842;2023-07-28T19:29:31;23.50;93.10
45849;DHT22;31567;54.600;9.842;2023-07-28T19:33:10;23.30;93.40
45849;DHT22;31567;54.600;9.842;2023-07-28T19:36:50;23.20;93.90
45849;DHT22;31567;54.600;9.842;2023-07-28T19:40:30;23.00;93.90
45849;DHT22;31567;54.600;9.842;2023-07-28T19:44:10;22.90;94.10
45849;DHT22;31567;54.600;9.842;2023-07-28T19:47:50;22.80;94.40
45849;DHT22;31567;54.600;9.842;2023-07-28T19:51:29;22.60;94.60
45849;DHT22;31567;54.600;9.842;2023-07-28T19:55:09;22.50;94.80
45849;DHT22;31567;54.600;9.842;2023-07-28T19:58:48;22.40;95.00
45849;DHT22;31567;54.600;9.842;2023-07-28T20:02:28;22.30;95.10
45849;DHT22;31567;54.600;9.842;2023-07-28T20:06:07;22.20;95.30
45849;DHT22;31567;54.600;9.842;2023-07-28T20:09:47;22.10;95.40
45849;DHT22;31567;54.600;9.842;2023-07-28T20:13:26;22.00;95.50
45849;DHT22;31567;54.600;9.842;2023-07-28T20:17:06;21.90;95.70
45849;DHT22;31567;54.600;9.842;2023-07-28T20:20:45;21.90;95.80
45849;DHT22;31567;54.600;9.842;2023-07-28T20:24:25;21.70;95.90
45849;DHT22;31567;54.600;9.842;2023-07-28T20:28:05;21.70;96.10
45849;DHT22;31567;54.600;9.842;2023-07-28T20:31:44;21.60;96.20
45849;DHT22;31567;54.600;9.842;2023-07-28T20:35:24;21.50;96.30
45849;DHT22;31567;54.600;9.842;2023-07-28T20:39:03;21.40;96.40
45849;DHT22;31567;54.600;9.842;2023-07-28T20:42:43;21.30;96.50
45849;DHT22;31567;54.600;9.842;2023-07-28T20:46:22;21.30;96.60
45849;DHT22;31567;54.600;9.842;2023-07-28T20:50:02;21.20;96.70
45849;DHT22;31567;54.600;9.842;2023-07-28T20:53:42;21.20;96.80
45849;DHT22;31567;54.600;9.842;2023-07-28T20:57:21;21.00;96.90
45849;DHT22;31567;54.600;9.842;2023-07-28T21:01:01;21.00;97.00
45849;DHT22;31567;54.600;9.842;2023-07-28T21:04:40;20.90;97.10
45849;DHT22;31567;54.600;9.842;2023-07-28T21:08:20;20.90;97.20
45849;DHT22;31567;54.600;9.842;2023-07-28T21:12:00;20.80;97.30
45849;DHT22;31567;54.600;9.842;2023-07-28T21:15:39;20.80;97.50
45849;DHT22;31567;54.600;9.842;2023-07-28T21:19:19;20.80;97.60
45849;DHT22;31567;54.600;9.842;2023-07-28T21:22:59;20.70;97.70
45849;DHT22;31567;54.600;9.842;2023-07-28T21:26:38;20.60;97.70
45849;DHT22;31567;54.600;9.842;2023-07-28T21:30:18;20.60;97.80
45849;DHT22;31567;54.600;9.842;2023-07-28T21:33:58;20.50;97.90
45849;DHT22;31567;54.600;9.842;2023-07-28T21:37:38;20.50;98.00
45849;DHT22;31567;54.600;9.842;2023-07-28T21:41:18;20.40;98.00
45849;DHT22;31567;54.600;9.842;2023-07-28T21:44:57;20.40;98.20
45849;DHT22;31567;54.600;9.842;2023-07-28T21:48:37;20.40;98.40
45849;DHT22;31567;54.600;9.842;2023-07-28T21:52:16;20.30;98.40
45849;DHT22;31567;54.600;9.842;2023-07-28T21:55:56;20.20;98.80
45849;DHT22;31567;54.600;9.842;2023-07-28T21:59:35;20.10;98.70
45849;DHT22;31567;54.600;9.842;2023-07-28T22:03:15;20.10;98.80
45849;DHT22;31567;54.600;9.842;2023-07-28T22:06:55;20.00;98.80
45849;DHT22;31567;54.600;9.842;2023-07-28T22:10:34;19.90;99.10
45849;DHT22;31567;54.600;9.842;2023-07-28T22:14:14;19.80;98.90
45849;DHT22;31567;54.600;9.842;2023-07-28T22:17:53;19.70;98.80
45849;DHT22;31567;54.600;9.842;2023-07-28T22:21:33;19.60;98.90
45849;DHT22;31567;54.600;9.842;2023-07-28T22:25:13;19.50;98.90
45849;DHT22;31567;54.600;9.842;2023-07-28T22:28:52;19.40;99.00
45849;DHT22;31567;54.600;9.842;2023-07-28T22:32:32;19.30;99.10
45849;DHT22;31567;54.600;9.842;2023-07-28T22:36:11;19.30;99.30
45849;DHT22;31567;54.600;9.842;2023-07-28T22:39:51;19.30;99.40
45849;DHT22;31567;54.600;9.842;2023-07-28T22:43:30;19.30;99.60
45849;DHT22;31567;54.600;9.842;2023-07-28T22:47:10;19.30;99.70
45849;DHT22;31567;54.600;9.842;2023-07-28T22:50:50;19.20;99.80
45849;DHT22;31567;54.600;9.842;2023-07-28T22:54:30;19.30;99.90
45849;DHT22;31567;54.600;9.842;2023-07-28T22:58:10;19.30;99.90
45849;DHT22;31567;54.600;9.842;2023-07-28T23:01:49;19.30;99.90
45849;DHT22;31567;54.600;9.842;2023-07-28T23:05:29;19.30;99.90
45849;DHT22;31567;54.600;9.842;2023-07-28T23:09:09;19.30;99.90
45849;DHT22;31567;54.600;9.842;2023-07-28T23:12:49;19.20;99.90
45849;DHT22;31567;54.600;9.842;2023-07-28T23:16:29;19.30;99.90
45849;DHT22;31567;54.600;9.842;2023-07-28T23:20:08;19.30;99.90
45849;DHT22;31567;54.600;9.842;2023-07-28T23:23:49;19.20;99.90